createdAt,value
2017-07-16T00:01:06.845Z,0
2017-07-16T00:02:06.612Z,0
2017-07-16T00:03:06.482Z,0
2017-07-16T00:04:03.868Z,0
2017-07-16T00:05:20.633Z,0
2017-07-16T00:06:08.054Z,0
2017-07-16T00:06:54.257Z,0
2017-07-16T00:07:53.192Z,0
2017-07-16T00:08:54.093Z,0
2017-07-16T00:09:53.781Z,0
2017-07-16T00:11:07.541Z,0
2017-07-16T00:11:53.817Z,0
2017-07-16T00:12:54.947Z,0
2017-07-16T00:13:53.400Z,0
2017-07-16T00:14:54.474Z,0
2017-07-16T00:17:08.405Z,0
2017-07-16T00:17:53.762Z,0
2017-07-16T00:18:54.109Z,0
2017-07-16T00:19:53.771Z,0
2017-07-16T00:21:06.109Z,0
2017-07-16T00:21:54.107Z,0
2017-07-16T00:22:53.729Z,0
2017-07-16T00:23:53.285Z,0
2017-07-16T00:24:54.081Z,0
2017-07-16T00:26:04.952Z,0
2017-07-16T00:26:53.403Z,0
2017-07-16T00:27:53.739Z,0
2017-07-16T00:28:54.206Z,0
2017-07-16T00:29:53.758Z,0
2017-07-16T00:31:06.906Z,0
2017-07-16T00:31:53.080Z,0
2017-07-16T00:32:53.276Z,0
2017-07-16T00:33:53.091Z,0
2017-07-16T00:34:53.408Z,0
2017-07-16T00:36:02.627Z,0
2017-07-16T00:36:53.790Z,0
2017-07-16T00:37:53.786Z,0
2017-07-16T00:38:53.408Z,0
2017-07-16T00:39:53.551Z,0
2017-07-16T00:41:04.008Z,0
2017-07-16T00:41:53.734Z,0
2017-07-16T00:42:53.806Z,0
2017-07-16T00:43:54.086Z,0
2017-07-16T00:44:53.103Z,0
2017-07-16T00:46:03.596Z,0
2017-07-16T00:46:53.755Z,0
2017-07-16T00:47:55.652Z,0
2017-07-16T00:48:52.739Z,0
2017-07-16T00:49:53.935Z,0
2017-07-16T00:51:04.724Z,0
2017-07-16T00:51:53.391Z,0
2017-07-16T00:52:53.457Z,0
2017-07-16T00:53:53.601Z,0
2017-07-16T00:54:53.417Z,0
2017-07-16T00:56:04.734Z,0
2017-07-16T00:56:53.053Z,0
2017-07-16T00:57:53.108Z,0
2017-07-16T00:58:53.572Z,0
2017-07-16T00:59:52.725Z,0
2017-07-16T01:01:03.714Z,0
2017-07-16T01:01:53.740Z,0
2017-07-16T01:02:54.414Z,0
2017-07-16T01:03:54.065Z,0
2017-07-16T01:04:53.744Z,0
2017-07-16T01:06:04.813Z,0
2017-07-16T01:06:53.394Z,0
2017-07-16T01:07:53.777Z,0
2017-07-16T01:08:54.087Z,0
2017-07-16T01:09:52.718Z,0
2017-07-16T01:11:04.761Z,0
2017-07-16T01:11:53.807Z,0
2017-07-16T01:12:53.803Z,0
2017-07-16T01:13:54.100Z,0
2017-07-16T01:14:53.904Z,0
2017-07-16T01:16:04.832Z,0
2017-07-16T01:16:53.237Z,0
2017-07-16T01:18:54.640Z,0
2017-07-16T01:19:53.811Z,0
2017-07-16T01:21:03.489Z,0
2017-07-16T01:21:52.722Z,0
2017-07-16T01:22:53.399Z,0
2017-07-16T01:23:54.157Z,0
2017-07-16T01:24:53.386Z,0
2017-07-16T01:26:04.187Z,0
2017-07-16T01:26:53.717Z,0
2017-07-16T01:27:53.389Z,0
2017-07-16T01:28:54.102Z,0
2017-07-16T01:29:53.193Z,0
2017-07-16T01:31:06.012Z,0
2017-07-16T01:31:53.405Z,0
2017-07-16T01:32:53.807Z,0
2017-07-16T01:33:53.433Z,0
2017-07-16T01:34:53.396Z,0
2017-07-16T01:36:06.926Z,0
2017-07-16T01:36:53.738Z,0
2017-07-16T01:37:53.104Z,0
2017-07-16T01:38:53.844Z,0
2017-07-16T01:39:53.722Z,0
2017-07-16T01:41:03.095Z,0
2017-07-16T01:41:53.407Z,0
2017-07-16T01:42:53.102Z,0
2017-07-16T01:43:53.826Z,0
2017-07-16T01:44:53.398Z,0
2017-07-16T01:46:02.969Z,0
2017-07-16T01:46:53.990Z,0
2017-07-16T01:47:53.096Z,0
2017-07-16T01:48:54.474Z,0
2017-07-16T01:49:54.093Z,0
2017-07-16T01:51:03.908Z,0
2017-07-16T01:51:53.745Z,0
2017-07-16T01:52:53.482Z,0
2017-07-16T01:53:53.819Z,0
2017-07-16T01:54:53.462Z,0
2017-07-16T01:56:05.419Z,0
2017-07-16T01:56:53.765Z,0
2017-07-16T01:57:53.715Z,0
2017-07-16T01:58:53.780Z,0
2017-07-16T01:59:53.780Z,0
2017-07-16T02:01:03.458Z,0
2017-07-16T02:01:53.403Z,0
2017-07-16T02:02:53.718Z,0
2017-07-16T02:03:53.867Z,0
2017-07-16T02:04:53.230Z,0
2017-07-16T02:06:06.057Z,0
2017-07-16T02:06:53.136Z,0
2017-07-16T02:07:53.757Z,0
2017-07-16T02:08:53.107Z,0
2017-07-16T02:09:54.082Z,0
2017-07-16T02:11:04.427Z,0
2017-07-16T02:11:54.148Z,0
2017-07-16T02:12:53.589Z,0
2017-07-16T02:13:53.771Z,0
2017-07-16T02:14:53.768Z,0
2017-07-16T02:16:05.459Z,0
2017-07-16T02:16:53.887Z,0
2017-07-16T02:17:53.093Z,0
2017-07-16T02:18:56.188Z,0
2017-07-16T02:19:53.714Z,0
2017-07-16T02:21:05.220Z,0
2017-07-16T02:21:53.048Z,0
2017-07-16T02:22:53.707Z,0
2017-07-16T02:23:54.049Z,0
2017-07-16T02:24:53.858Z,0
2017-07-16T02:26:05.004Z,0
2017-07-16T02:26:53.226Z,0
2017-07-16T02:27:53.587Z,0
2017-07-16T02:28:53.380Z,0
2017-07-16T02:29:53.770Z,0
2017-07-16T02:31:05.463Z,0
2017-07-16T02:31:53.362Z,0
2017-07-16T02:32:53.416Z,0
2017-07-16T02:33:52.690Z,0
2017-07-16T02:34:53.175Z,0
2017-07-16T02:36:06.110Z,0
2017-07-16T02:36:53.107Z,0
2017-07-16T02:37:53.046Z,0
2017-07-16T02:38:53.409Z,0
2017-07-16T02:39:53.745Z,0
2017-07-16T02:41:00.562Z,0
2017-07-16T02:41:53.751Z,0
2017-07-16T02:42:53.751Z,0
2017-07-16T02:43:53.697Z,0
2017-07-16T02:44:53.748Z,0
2017-07-16T02:46:03.836Z,0
2017-07-16T02:46:53.388Z,0
2017-07-16T02:47:53.026Z,0
2017-07-16T02:48:53.356Z,0
2017-07-16T02:49:54.939Z,0
2017-07-16T02:51:04.122Z,0
2017-07-16T02:51:54.105Z,0
2017-07-16T02:52:53.371Z,0
2017-07-16T02:53:53.356Z,0
2017-07-16T02:54:53.742Z,0
2017-07-16T02:56:05.151Z,0
2017-07-16T02:56:53.341Z,0
2017-07-16T02:57:53.365Z,0
2017-07-16T02:58:53.603Z,0
2017-07-16T02:59:54.281Z,0
2017-07-16T03:01:04.205Z,0
2017-07-16T03:01:53.425Z,0
2017-07-16T03:02:53.347Z,0
2017-07-16T03:03:54.105Z,0
2017-07-16T03:04:53.521Z,0
2017-07-16T03:06:03.731Z,0
2017-07-16T03:06:53.684Z,0
2017-07-16T03:07:53.718Z,0
2017-07-16T03:08:53.345Z,0
2017-07-16T03:09:53.398Z,0
2017-07-16T03:11:03.920Z,0
2017-07-16T03:11:53.005Z,0
2017-07-16T03:12:53.677Z,0
2017-07-16T03:13:53.082Z,0
2017-07-16T03:14:53.065Z,0
2017-07-16T03:16:04.570Z,0
2017-07-16T03:16:53.351Z,0
2017-07-16T03:17:54.031Z,0
2017-07-16T03:18:53.348Z,0
2017-07-16T03:19:53.748Z,0
2017-07-16T03:21:04.420Z,0
2017-07-16T03:21:53.368Z,0
2017-07-16T03:22:53.358Z,0
2017-07-16T03:23:53.342Z,0
2017-07-16T03:24:53.407Z,0
2017-07-16T03:26:03.425Z,0
2017-07-16T03:26:53.689Z,0
2017-07-16T03:27:53.672Z,0
2017-07-16T03:28:53.668Z,0
2017-07-16T03:29:53.720Z,5
2017-07-16T03:31:05.207Z,5
2017-07-16T03:31:52.651Z,5
2017-07-16T03:32:54.009Z,5
2017-07-16T03:33:54.010Z,5
2017-07-16T03:34:53.475Z,5
2017-07-16T03:36:04.725Z,5
2017-07-16T03:36:53.339Z,5
2017-07-16T03:37:53.664Z,5
2017-07-16T03:38:52.997Z,5
2017-07-16T03:39:53.718Z,5
2017-07-16T03:41:05.251Z,5
2017-07-16T03:41:52.992Z,5
2017-07-16T03:42:52.980Z,5
2017-07-16T03:43:53.331Z,5
2017-07-16T03:44:54.065Z,5
2017-07-16T03:46:02.451Z,5
2017-07-16T03:46:53.670Z,5
2017-07-16T03:47:53.688Z,5
2017-07-16T03:48:53.662Z,5
2017-07-16T03:49:53.869Z,5
2017-07-16T03:51:02.293Z,5
2017-07-16T03:51:53.991Z,10
2017-07-16T03:52:53.658Z,10
2017-07-16T03:53:53.991Z,10
2017-07-16T03:54:53.365Z,10
2017-07-16T03:56:03.336Z,10
2017-07-16T03:56:53.658Z,15
2017-07-16T03:57:53.990Z,15
2017-07-16T03:58:53.650Z,15
2017-07-16T03:59:53.380Z,15
2017-07-16T04:01:04.931Z,15
2017-07-16T04:01:53.650Z,20
2017-07-16T04:02:53.355Z,20
2017-07-16T04:03:53.655Z,20
2017-07-16T04:04:54.442Z,20
2017-07-16T04:06:02.458Z,25
2017-07-16T04:06:53.993Z,25
2017-07-16T04:07:53.656Z,25
2017-07-16T04:08:53.709Z,30
2017-07-16T04:09:54.038Z,30
2017-07-16T04:11:02.021Z,35
2017-07-16T04:11:52.988Z,35
2017-07-16T04:12:52.993Z,35
2017-07-16T04:13:53.350Z,40
2017-07-16T04:14:54.066Z,40
2017-07-16T04:16:05.180Z,35
2017-07-16T04:16:53.317Z,40
2017-07-16T04:17:53.008Z,40
2017-07-16T04:18:53.685Z,40
2017-07-16T04:19:53.335Z,45
2017-07-16T04:21:08.347Z,45
2017-07-16T04:21:53.350Z,45
2017-07-16T04:22:53.649Z,50
2017-07-16T04:23:53.655Z,50
2017-07-16T04:24:53.658Z,50
2017-07-16T04:25:59.975Z,50
2017-07-16T04:26:53.585Z,50
2017-07-16T04:27:53.327Z,50
2017-07-16T04:28:53.312Z,50
2017-07-16T04:29:53.649Z,50
2017-07-16T04:31:04.124Z,50
2017-07-16T04:31:53.376Z,50
2017-07-16T04:32:53.682Z,50
2017-07-16T04:33:53.128Z,55
2017-07-16T04:34:53.307Z,55
2017-07-16T04:36:04.345Z,55
2017-07-16T04:36:53.418Z,55
2017-07-16T04:37:54.002Z,60
2017-07-16T04:38:53.325Z,60
2017-07-16T04:39:53.309Z,60
2017-07-16T04:41:03.204Z,65
2017-07-16T04:41:53.386Z,65
2017-07-16T04:42:52.639Z,65
2017-07-16T04:43:53.668Z,65
2017-07-16T04:44:53.333Z,65
2017-07-16T04:46:01.438Z,65
2017-07-16T04:46:53.074Z,65
2017-07-16T04:47:52.645Z,65
2017-07-16T04:48:53.661Z,65
2017-07-16T04:49:53.001Z,65
2017-07-16T04:51:03.973Z,65
2017-07-16T04:51:55.495Z,65
2017-07-16T04:52:52.983Z,65
2017-07-16T04:53:52.985Z,65
2017-07-16T04:54:53.658Z,65
2017-07-16T04:56:03.427Z,65
2017-07-16T04:56:53.386Z,65
2017-07-16T04:57:53.346Z,70
2017-07-16T04:58:53.673Z,70
2017-07-16T04:59:52.987Z,75
2017-07-16T05:01:01.481Z,80
2017-07-16T05:01:53.776Z,85
2017-07-16T05:02:53.673Z,85
2017-07-16T05:03:53.380Z,85
2017-07-16T05:04:52.988Z,90
2017-07-16T05:06:03.115Z,90
2017-07-16T05:06:53.782Z,95
2017-07-16T05:07:52.988Z,95
2017-07-16T05:08:53.344Z,100
2017-07-16T05:09:53.686Z,100
2017-07-16T05:11:03.181Z,100
2017-07-16T05:11:53.050Z,100
2017-07-16T05:12:53.693Z,100
2017-07-16T05:13:53.675Z,105
2017-07-16T05:14:53.024Z,105
2017-07-16T05:16:00.454Z,105
2017-07-16T05:16:54.175Z,105
2017-07-16T05:17:54.171Z,100
2017-07-16T05:18:54.025Z,100
2017-07-16T05:19:53.105Z,100
2017-07-16T05:21:00.671Z,100
2017-07-16T05:21:54.241Z,95
2017-07-16T05:22:54.017Z,95
2017-07-16T05:23:53.695Z,95
2017-07-16T05:24:53.016Z,95
2017-07-16T05:26:02.932Z,95
2017-07-16T05:26:54.190Z,95
2017-07-16T05:27:54.851Z,95
2017-07-16T05:28:53.700Z,95
2017-07-16T05:29:53.695Z,100
2017-07-16T05:31:03.108Z,100
2017-07-16T05:31:53.368Z,100
2017-07-16T05:32:53.758Z,100
2017-07-16T05:33:52.692Z,100
2017-07-16T05:34:53.719Z,105
2017-07-16T05:36:04.181Z,105
2017-07-16T05:36:54.045Z,110
2017-07-16T05:37:53.182Z,110
2017-07-16T05:38:53.038Z,115
2017-07-16T05:39:53.763Z,115
2017-07-16T05:41:04.046Z,120
2017-07-16T05:41:53.757Z,125
2017-07-16T05:42:53.461Z,130
2017-07-16T05:43:53.163Z,135
2017-07-16T05:44:53.388Z,140
2017-07-16T05:46:04.105Z,150
2017-07-16T05:46:53.396Z,155
2017-07-16T05:47:53.769Z,155
2017-07-16T05:48:53.374Z,160
2017-07-16T05:49:53.453Z,165
2017-07-16T05:51:07.281Z,170
2017-07-16T05:51:53.054Z,175
2017-07-16T05:52:54.339Z,180
2017-07-16T05:53:53.728Z,185
2017-07-16T05:54:53.064Z,190
2017-07-16T05:56:01.140Z,195
2017-07-16T05:56:53.404Z,195
2017-07-16T05:57:53.449Z,200
2017-07-16T05:58:53.413Z,200
2017-07-16T05:59:53.412Z,205
2017-07-16T06:01:02.711Z,205
2017-07-16T06:01:53.516Z,210
2017-07-16T06:02:53.471Z,225
2017-07-16T06:03:53.155Z,280
2017-07-16T06:04:53.411Z,400
2017-07-16T06:06:01.561Z,420
2017-07-16T06:06:53.764Z,410
2017-07-16T06:07:55.006Z,285
2017-07-16T06:08:53.786Z,320
2017-07-16T06:09:53.438Z,245
2017-07-16T06:11:01.383Z,240
2017-07-16T06:11:53.772Z,260
2017-07-16T06:12:54.164Z,260
2017-07-16T06:13:53.775Z,290
2017-07-16T06:14:53.443Z,330
2017-07-16T06:16:01.011Z,315
2017-07-16T06:16:53.456Z,290
2017-07-16T06:17:53.837Z,305
2017-07-16T06:18:54.138Z,345
2017-07-16T06:19:53.800Z,465
2017-07-16T06:21:01.343Z,385
2017-07-16T06:21:53.829Z,390
2017-07-16T06:22:54.629Z,430
2017-07-16T06:23:53.840Z,325
2017-07-16T06:24:53.846Z,320
2017-07-16T06:26:04.034Z,330
2017-07-16T06:26:53.837Z,320
2017-07-16T06:27:53.574Z,320
2017-07-16T06:28:53.843Z,285
2017-07-16T06:29:53.187Z,285
2017-07-16T06:31:02.110Z,285
2017-07-16T06:31:53.524Z,265
2017-07-16T06:32:53.611Z,310
2017-07-16T06:33:52.852Z,310
2017-07-16T06:34:53.203Z,315
2017-07-16T06:36:01.934Z,320
2017-07-16T06:36:53.225Z,315
2017-07-16T06:37:54.251Z,365
2017-07-16T06:38:53.567Z,380
2017-07-16T06:39:53.566Z,425
2017-07-16T06:41:01.714Z,400
2017-07-16T06:41:53.605Z,340
2017-07-16T06:42:54.077Z,380
2017-07-16T06:43:53.928Z,335
2017-07-16T06:44:54.368Z,300
2017-07-16T06:46:02.410Z,265
2017-07-16T06:46:54.292Z,270
2017-07-16T06:47:53.681Z,265
2017-07-16T06:48:53.962Z,270
2017-07-16T06:49:53.969Z,295
2017-07-16T06:51:02.431Z,325
2017-07-16T06:51:53.402Z,360
2017-07-16T06:52:56.416Z,300
2017-07-16T06:53:53.492Z,280
2017-07-16T06:54:53.694Z,275
2017-07-16T06:56:02.505Z,290
2017-07-16T06:56:54.297Z,330
2017-07-16T06:57:54.537Z,345
2017-07-16T06:58:54.259Z,335
2017-07-16T06:59:53.810Z,340
2017-07-16T07:01:01.047Z,380
2017-07-16T07:01:53.726Z,380
2017-07-16T07:02:53.765Z,390
2017-07-16T07:03:53.728Z,400
2017-07-16T07:04:53.739Z,420
2017-07-16T07:06:05.072Z,435
2017-07-16T07:06:54.942Z,425
2017-07-16T07:07:55.702Z,405
2017-07-16T07:08:57.385Z,415
2017-07-16T07:09:54.534Z,395
2017-07-16T07:11:03.165Z,440
2017-07-16T07:11:54.086Z,445
2017-07-16T07:12:53.437Z,430
2017-07-16T07:13:53.820Z,420
2017-07-16T07:14:53.772Z,410
2017-07-16T07:16:01.476Z,400
2017-07-16T07:16:54.119Z,405
2017-07-16T07:17:54.140Z,375
2017-07-16T07:18:53.850Z,385
2017-07-16T07:19:54.474Z,410
2017-07-16T07:21:02.979Z,375
2017-07-16T07:21:53.493Z,390
2017-07-16T07:22:54.165Z,380
2017-07-16T07:23:55.759Z,375
2017-07-16T07:24:54.529Z,375
2017-07-16T07:26:01.656Z,370
2017-07-16T07:26:54.194Z,340
2017-07-16T07:27:53.879Z,355
2017-07-16T07:28:54.641Z,350
2017-07-16T07:29:54.216Z,370
2017-07-16T07:31:01.744Z,355
2017-07-16T07:31:54.230Z,330
2017-07-16T07:32:54.229Z,335
2017-07-16T07:33:53.977Z,340
2017-07-16T07:34:53.571Z,330
2017-07-16T07:36:02.149Z,365
2017-07-16T07:36:53.586Z,355
2017-07-16T07:37:53.929Z,345
2017-07-16T07:38:57.311Z,335
2017-07-16T07:39:53.993Z,305
2017-07-16T07:41:02.135Z,290
2017-07-16T07:41:54.328Z,280
2017-07-16T07:42:53.778Z,295
2017-07-16T07:43:54.822Z,285
2017-07-16T07:44:54.701Z,310
2017-07-16T07:46:00.722Z,300
2017-07-16T07:46:54.079Z,310
2017-07-16T07:47:54.344Z,365
2017-07-16T07:48:54.415Z,400
2017-07-16T07:49:53.720Z,400
2017-07-16T07:51:02.690Z,375
2017-07-16T07:51:54.376Z,375
2017-07-16T07:52:53.708Z,430
2017-07-16T07:53:54.368Z,390
2017-07-16T07:54:54.803Z,375
2017-07-16T07:56:01.866Z,345
2017-07-16T07:56:54.449Z,365
2017-07-16T07:57:54.431Z,365
2017-07-16T07:58:54.480Z,365
2017-07-16T07:59:54.294Z,405
2017-07-16T08:01:12.230Z,360
2017-07-16T08:02:11.358Z,370
2017-07-16T08:03:14.738Z,365
2017-07-16T08:05:11.139Z,330
2017-07-16T08:06:14.613Z,335
2017-07-16T08:07:07.512Z,380
2017-07-16T08:08:03.340Z,395
2017-07-16T08:08:54.164Z,380
2017-07-16T08:09:54.641Z,325
2017-07-16T08:11:03.034Z,320
2017-07-16T08:11:54.948Z,320
2017-07-16T08:12:54.426Z,350
2017-07-16T08:13:54.888Z,395
2017-07-16T08:14:54.991Z,390
2017-07-16T08:16:01.993Z,390
2017-07-16T08:16:54.925Z,400
2017-07-16T08:17:54.642Z,385
2017-07-16T08:18:54.282Z,400
2017-07-16T08:19:54.657Z,405
2017-07-16T08:21:04.501Z,390
2017-07-16T08:21:54.641Z,375
2017-07-16T08:22:54.304Z,370
2017-07-16T08:23:54.690Z,375
2017-07-16T08:24:54.966Z,360
2017-07-16T08:26:03.167Z,390
2017-07-16T08:26:54.657Z,345
2017-07-16T08:27:54.574Z,335
2017-07-16T08:28:54.746Z,375
2017-07-16T08:29:54.787Z,370
2017-07-16T08:31:03.201Z,365
2017-07-16T08:31:54.494Z,365
2017-07-16T08:32:54.060Z,355
2017-07-16T08:33:54.060Z,380
2017-07-16T08:34:54.801Z,345
2017-07-16T08:36:01.743Z,385
2017-07-16T08:36:54.533Z,370
2017-07-16T08:37:54.597Z,360
2017-07-16T08:38:55.265Z,365
2017-07-16T08:39:55.114Z,385
2017-07-16T08:41:01.584Z,335
2017-07-16T08:41:54.799Z,335
2017-07-16T08:42:53.862Z,345
2017-07-16T08:43:54.479Z,350
2017-07-16T08:44:54.855Z,365
2017-07-16T08:46:02.171Z,390
2017-07-16T08:46:54.841Z,360
2017-07-16T08:47:54.827Z,375
2017-07-16T08:48:54.144Z,365
2017-07-16T08:49:54.890Z,365
2017-07-16T08:51:01.881Z,335
2017-07-16T08:51:54.504Z,320
2017-07-16T08:52:54.844Z,315
2017-07-16T08:53:55.301Z,375
2017-07-16T08:54:57.068Z,355
2017-07-16T08:56:02.169Z,370
2017-07-16T08:56:54.651Z,345
2017-07-16T08:57:54.542Z,330
2017-07-16T08:58:55.110Z,295
2017-07-16T08:59:54.964Z,300
2017-07-16T09:01:04.514Z,290
2017-07-16T09:01:55.158Z,300
2017-07-16T09:02:54.593Z,290
2017-07-16T09:03:55.462Z,270
2017-07-16T09:04:55.153Z,275
2017-07-16T09:06:04.461Z,270
2017-07-16T09:06:54.599Z,255
2017-07-16T09:07:54.950Z,290
2017-07-16T09:08:54.997Z,270
2017-07-16T09:09:55.157Z,265
2017-07-16T09:11:01.411Z,285
2017-07-16T09:11:54.634Z,285
2017-07-16T09:12:54.337Z,275
2017-07-16T09:13:54.642Z,295
2017-07-16T09:14:55.402Z,290
2017-07-16T09:16:01.760Z,295
2017-07-16T09:16:54.357Z,295
2017-07-16T09:17:55.390Z,305
2017-07-16T09:18:54.712Z,290
2017-07-16T09:19:55.074Z,290
2017-07-16T09:21:01.807Z,310
2017-07-16T09:21:54.701Z,290
2017-07-16T09:22:54.717Z,285
2017-07-16T09:23:54.373Z,275
2017-07-16T09:24:55.841Z,295
2017-07-16T09:26:00.611Z,265
2017-07-16T09:26:55.059Z,260
2017-07-16T09:27:54.755Z,250
2017-07-16T09:28:54.477Z,265
2017-07-16T09:29:54.423Z,260
2017-07-16T09:31:04.322Z,275
2017-07-16T09:31:54.765Z,260
2017-07-16T09:32:55.458Z,260
2017-07-16T09:33:54.776Z,260
2017-07-16T09:34:54.896Z,255
2017-07-16T09:36:05.269Z,255
2017-07-16T09:36:55.478Z,250
2017-07-16T09:37:55.187Z,250
2017-07-16T09:38:54.509Z,245
2017-07-16T09:39:55.305Z,240
2017-07-16T09:41:02.202Z,235
2017-07-16T09:41:55.718Z,235
2017-07-16T09:43:01.321Z,230
2017-07-16T09:43:54.906Z,230
2017-07-16T09:44:55.317Z,230
2017-07-16T09:46:01.452Z,225
2017-07-16T09:46:54.764Z,220
2017-07-16T09:47:55.554Z,225
2017-07-16T09:48:55.251Z,220
2017-07-16T09:49:54.911Z,215
2017-07-16T09:51:02.928Z,215
2017-07-16T09:51:55.329Z,215
2017-07-16T09:52:55.723Z,220
2017-07-16T09:53:54.943Z,220
2017-07-16T09:54:55.311Z,215
2017-07-16T09:56:01.961Z,215
2017-07-16T09:56:56.468Z,215
2017-07-16T09:57:54.905Z,215
2017-07-16T09:58:55.598Z,215
2017-07-16T09:59:54.375Z,215
2017-07-16T10:01:11.998Z,215
2017-07-16T10:02:06.242Z,215
2017-07-16T10:03:01.758Z,215
2017-07-16T10:03:55.237Z,215
2017-07-16T10:04:54.604Z,225
2017-07-16T10:06:00.339Z,215
2017-07-16T10:06:55.074Z,215
2017-07-16T10:07:55.287Z,215
2017-07-16T10:08:55.012Z,225
2017-07-16T10:09:55.299Z,220
2017-07-16T10:11:03.667Z,220
2017-07-16T10:11:55.700Z,220
2017-07-16T10:12:55.033Z,220
2017-07-16T10:13:55.010Z,215
2017-07-16T10:14:54.815Z,215
2017-07-16T10:16:03.649Z,215
2017-07-16T10:16:55.472Z,205
2017-07-16T10:17:55.344Z,215
2017-07-16T10:18:55.015Z,220
2017-07-16T10:19:55.105Z,215
2017-07-16T10:21:04.348Z,215
2017-07-16T10:21:55.076Z,215
2017-07-16T10:22:55.392Z,215
2017-07-16T10:23:55.581Z,215
2017-07-16T10:24:54.544Z,215
2017-07-16T10:26:03.300Z,215
2017-07-16T10:26:55.864Z,220
2017-07-16T10:27:54.808Z,225
2017-07-16T10:28:55.541Z,230
2017-07-16T10:29:55.745Z,225
2017-07-16T10:31:03.885Z,230
2017-07-16T10:31:55.102Z,230
2017-07-16T10:32:55.404Z,230
2017-07-16T10:33:55.253Z,230
2017-07-16T10:34:55.704Z,230
2017-07-16T10:36:04.191Z,230
2017-07-16T10:36:54.795Z,225
2017-07-16T10:37:57.122Z,225
2017-07-16T10:38:55.792Z,220
2017-07-16T10:39:55.819Z,215
2017-07-16T10:41:05.582Z,220
2017-07-16T10:41:55.609Z,225
2017-07-16T10:42:54.987Z,230
2017-07-16T10:43:55.258Z,235
2017-07-16T10:44:54.880Z,235
2017-07-16T10:46:05.202Z,230
2017-07-16T10:46:55.739Z,230
2017-07-16T10:47:55.673Z,215
2017-07-16T10:48:55.349Z,230
2017-07-16T10:49:55.238Z,175
2017-07-16T10:51:05.601Z,170
2017-07-16T10:51:55.560Z,180
2017-07-16T10:52:55.432Z,190
2017-07-16T10:53:56.010Z,170
2017-07-16T10:54:55.907Z,190
2017-07-16T10:56:05.307Z,185
2017-07-16T10:56:59.849Z,210
2017-07-16T10:58:06.242Z,205
2017-07-16T10:59:01.387Z,220
2017-07-16T10:59:55.354Z,225
2017-07-16T11:01:11.134Z,220
2017-07-16T11:01:55.309Z,225
2017-07-16T11:02:54.969Z,225
2017-07-16T11:03:55.329Z,210
2017-07-16T11:04:55.767Z,230
2017-07-16T11:06:05.222Z,225
2017-07-16T11:07:01.376Z,225
2017-07-16T11:08:02.911Z,230
2017-07-16T11:08:59.341Z,235
2017-07-16T11:09:55.229Z,230
2017-07-16T11:11:01.996Z,200
2017-07-16T11:11:55.365Z,215
2017-07-16T11:12:55.802Z,245
2017-07-16T11:13:55.830Z,245
2017-07-16T11:14:55.543Z,250
2017-07-16T11:16:03.912Z,245
2017-07-16T11:16:55.332Z,215
2017-07-16T11:17:55.081Z,220
2017-07-16T11:18:55.478Z,225
2017-07-16T11:19:56.251Z,230
2017-07-16T11:21:03.894Z,275
2017-07-16T11:21:55.858Z,290
2017-07-16T11:22:55.070Z,305
2017-07-16T11:23:56.154Z,300
2017-07-16T11:24:55.786Z,300
2017-07-16T11:26:05.046Z,295
2017-07-16T11:26:55.803Z,300
2017-07-16T11:27:57.032Z,315
2017-07-16T11:28:55.495Z,305
2017-07-16T11:29:55.772Z,320
2017-07-16T11:31:02.875Z,305
2017-07-16T11:31:55.537Z,310
2017-07-16T11:32:55.940Z,300
2017-07-16T11:33:56.754Z,300
2017-07-16T11:34:55.778Z,295
2017-07-16T11:36:04.484Z,290
2017-07-16T11:36:55.869Z,295
2017-07-16T11:37:55.232Z,310
2017-07-16T11:38:56.904Z,320
2017-07-16T11:39:56.824Z,300
2017-07-16T11:41:05.313Z,305
2017-07-16T11:41:56.668Z,305
2017-07-16T11:42:55.703Z,300
2017-07-16T11:43:56.236Z,300
2017-07-16T11:44:55.529Z,290
2017-07-16T11:46:05.058Z,275
2017-07-16T11:46:56.070Z,250
2017-07-16T11:47:56.701Z,240
2017-07-16T11:48:57.512Z,265
2017-07-16T11:49:56.328Z,265
2017-07-16T11:51:01.442Z,275
2017-07-16T11:51:56.184Z,270
2017-07-16T11:52:56.508Z,270
2017-07-16T11:53:57.915Z,270
2017-07-16T11:54:57.024Z,270
2017-07-16T11:56:06.627Z,265
2017-07-16T11:56:56.207Z,280
2017-07-16T11:57:56.358Z,285
2017-07-16T11:59:00.703Z,285
2017-07-16T11:59:57.305Z,290
2017-07-16T12:01:05.289Z,290
2017-07-16T12:02:03.828Z,285
2017-07-16T12:03:02.233Z,270
2017-07-16T12:04:00.892Z,265
2017-07-16T12:05:01.472Z,260
2017-07-16T12:06:05.404Z,260
2017-07-16T12:07:03.404Z,255
2017-07-16T12:08:01.377Z,260
2017-07-16T12:09:02.018Z,260
2017-07-16T12:10:02.654Z,260
2017-07-16T12:11:02.551Z,270
2017-07-16T12:12:04.925Z,255
2017-07-16T12:12:58.298Z,255
2017-07-16T12:13:56.509Z,255
2017-07-16T12:14:56.192Z,255
2017-07-16T12:16:00.837Z,260
2017-07-16T12:16:55.638Z,260
2017-07-16T12:17:57.128Z,270
2017-07-16T12:18:56.190Z,275
2017-07-16T12:19:56.180Z,270
2017-07-16T12:21:06.559Z,270
2017-07-16T12:21:56.495Z,275
2017-07-16T12:22:55.763Z,290
2017-07-16T12:23:56.038Z,315
2017-07-16T12:24:57.853Z,315
2017-07-16T12:26:06.054Z,330
2017-07-16T12:26:56.755Z,345
2017-07-16T12:27:56.032Z,345
2017-07-16T12:28:56.637Z,355
2017-07-16T12:30:00.945Z,360
2017-07-16T12:31:07.211Z,370
2017-07-16T12:31:56.070Z,355
2017-07-16T12:32:56.132Z,355
2017-07-16T12:33:58.872Z,355
2017-07-16T12:34:56.078Z,365
2017-07-16T12:36:02.131Z,365
2017-07-16T12:36:56.637Z,370
2017-07-16T12:37:56.004Z,370
2017-07-16T12:38:56.688Z,370
2017-07-16T12:39:55.955Z,375
2017-07-16T12:41:05.630Z,385
2017-07-16T12:41:57.377Z,390
2017-07-16T12:42:56.313Z,385
2017-07-16T12:43:56.523Z,380
2017-07-16T12:44:56.150Z,370
2017-07-16T12:46:08.997Z,370
2017-07-16T12:46:56.017Z,375
2017-07-16T12:47:56.168Z,375
2017-07-16T12:48:56.607Z,380
2017-07-16T12:49:56.713Z,385
2017-07-16T12:51:03.156Z,385
2017-07-16T12:51:56.351Z,385
2017-07-16T12:52:57.639Z,385
2017-07-16T12:53:56.958Z,390
2017-07-16T12:54:58.436Z,380
2017-07-16T12:56:04.130Z,380
2017-07-16T12:56:56.729Z,380
2017-07-16T12:57:57.001Z,380
2017-07-16T12:58:56.510Z,380
2017-07-16T12:59:59.441Z,375
2017-07-16T13:01:03.620Z,365
2017-07-16T13:01:56.905Z,365
2017-07-16T13:02:56.793Z,360
2017-07-16T13:03:57.233Z,360
2017-07-16T13:04:57.634Z,360
2017-07-16T13:06:03.974Z,360
2017-07-16T13:07:00.858Z,365
2017-07-16T13:08:05.249Z,370
2017-07-16T13:09:02.918Z,370
2017-07-16T13:09:56.435Z,375
2017-07-16T13:11:04.370Z,380
2017-07-16T13:11:57.465Z,390
2017-07-16T13:12:57.093Z,385
2017-07-16T13:13:57.111Z,390
2017-07-16T13:14:58.076Z,395
2017-07-16T13:16:05.355Z,400
2017-07-16T13:16:57.274Z,390
2017-07-16T13:17:57.339Z,385
2017-07-16T13:18:57.675Z,380
2017-07-16T13:19:57.657Z,380
2017-07-16T13:21:04.397Z,370
2017-07-16T13:22:00.904Z,365
2017-07-16T13:22:57.091Z,360
2017-07-16T13:23:57.037Z,350
2017-07-16T13:24:57.328Z,340
2017-07-16T13:26:04.133Z,330
2017-07-16T13:26:56.921Z,320
2017-07-16T13:27:57.184Z,315
2017-07-16T13:28:56.980Z,305
2017-07-16T13:29:55.922Z,295
2017-07-16T13:31:09.562Z,290
2017-07-16T13:31:56.115Z,285
2017-07-16T13:32:56.822Z,285
2017-07-16T13:33:55.809Z,285
2017-07-16T13:34:56.470Z,285
2017-07-16T13:36:03.870Z,285
2017-07-16T13:36:56.862Z,285
2017-07-16T13:37:56.573Z,290
2017-07-16T13:38:55.517Z,295
2017-07-16T13:39:56.204Z,305
2017-07-16T13:41:05.842Z,315
2017-07-16T13:41:56.542Z,320
2017-07-16T13:42:56.284Z,320
2017-07-16T13:43:57.307Z,325
2017-07-16T13:44:56.931Z,325
2017-07-16T13:46:07.712Z,335
2017-07-16T13:46:55.877Z,335
2017-07-16T13:47:57.035Z,335
2017-07-16T13:48:57.411Z,330
2017-07-16T13:49:56.433Z,325
2017-07-16T13:51:06.620Z,315
2017-07-16T13:51:56.436Z,320
2017-07-16T13:52:56.936Z,320
2017-07-16T13:53:57.227Z,315
2017-07-16T13:54:57.019Z,320
2017-07-16T13:56:08.013Z,335
2017-07-16T13:56:56.051Z,340
2017-07-16T13:57:56.562Z,330
2017-07-16T13:58:56.696Z,325
2017-07-16T13:59:56.847Z,320
2017-07-16T14:01:07.254Z,320
2017-07-16T14:01:56.339Z,330
2017-07-16T14:02:56.801Z,330
2017-07-16T14:03:56.719Z,310
2017-07-16T14:04:57.454Z,310
2017-07-16T14:06:06.513Z,295
2017-07-16T14:06:56.954Z,290
2017-07-16T14:07:58.020Z,290